KOTM/OTM METAR and TAF weather

Enter ICAO airport designator
Station Type Date Time Source
KOTM METAR 2021/09/28 03:53 UTC NOAA

KOTM 280353Z AUTO 35003KT 10SM CLR 18/15 A2986 RMK AO2 SLP107 T01830150


Station Type Date Time Source
KOTM Decoded METAR 2021/09/28 03:53 UTC NOAA

OTTUMWA INDUSTRIAL AIRPORT, IA, United States (KOTM) 41-06N 092-27W 256M
Sep 27, 2021 - 11:53 PM EDT / 2021.09.28 0353 UTC
Wind: from the N (350 degrees) at 3 MPH (3 KT):0
Visibility: 10 mile(s):0
Sky conditions: clear
Temperature: 64.9 F (18.3 C)
Dew Point: 59.0 F (15.0 C)
Relative Humidity: 81%
Pressure (altimeter): 29.86 in. Hg (1011 hPa)
ob: KOTM 280353Z AUTO 35003KT 10SM CLR 18/15 A2986 RMK AO2 SLP107 T01830150
cycle: 4

Station Type Date Time Source
KOTM TAF 2021/09/27 18:22 UTC NOAA

TAF KOTM 271720Z 2718/2818 25011KT P6SM SKC
FM272300 VRB04KT P6SM SKC

Example: see airport list